createdAt,value
2022-09-29T00:00:22.928Z,10.70
2022-09-29T00:02:50.177Z,10.60
2022-09-29T00:05:17.499Z,9.02
2022-09-29T00:07:44.942Z,10.85
2022-09-29T00:10:12.597Z,10.48
2022-09-29T00:12:40.219Z,11.48
2022-09-29T00:15:07.672Z,11.23
2022-09-29T00:17:34.918Z,12.15
2022-09-29T00:20:02.287Z,13.05
2022-09-29T00:22:29.476Z,11.77
2022-09-29T00:24:56.719Z,12.00
2022-09-29T00:27:23.935Z,11.65
2022-09-29T00:29:51.129Z,11.93
2022-09-29T00:32:18.507Z,11.80
2022-09-29T00:34:45.697Z,9.88
2022-09-29T00:37:13.715Z,9.20
2022-09-29T00:39:40.949Z,9.15
2022-09-29T00:42:08.148Z,8.95
2022-09-29T00:44:56.239Z,8.48
2022-09-29T00:47:25.939Z,8.35
2022-09-29T00:49:56.516Z,8.40
2022-09-29T00:52:23.691Z,9.27
2022-09-29T00:54:52.485Z,9.30
2022-09-29T00:57:22.078Z,10.25
2022-09-29T00:59:55.635Z,8.85
2022-09-29T01:02:23.607Z,9.98
2022-09-29T01:04:52.972Z,10.82
2022-09-29T01:07:22.106Z,12.38
2022-09-29T01:09:51.095Z,11.05
2022-09-29T01:12:18.567Z,11.00
2022-09-29T01:14:45.928Z,10.55
2022-09-29T01:17:13.224Z,10.45
2022-09-29T01:19:40.415Z,11.48
2022-09-29T01:22:33.925Z,11.70
2022-09-29T01:25:19.900Z,11.60
2022-09-29T01:27:50.147Z,10.82
2022-09-29T01:30:17.383Z,11.95
2022-09-29T01:32:53.259Z,12.00
2022-09-29T01:35:23.243Z,11.80
2022-09-29T01:38:08.453Z,11.27
2022-09-29T01:40:41.628Z,11.02
2022-09-29T01:43:21.680Z,10.85
2022-09-29T01:45:53.078Z,9.93
2022-09-29T01:48:32.217Z,9.55
2022-09-29T01:51:01.967Z,10.77
2022-09-29T01:53:31.636Z,9.93
2022-09-29T01:56:02.669Z,10.77
2022-09-29T01:58:42.052Z,9.65
2022-09-29T02:01:12.568Z,10.60
2022-09-29T02:03:43.049Z,10.07
2022-09-29T02:06:22.820Z,11.40
2022-09-29T02:08:57.596Z,10.85
2022-09-29T02:11:25.223Z,10.38
2022-09-29T02:14:02.734Z,10.95
2022-09-29T02:16:31.234Z,10.95
2022-09-29T02:19:04.128Z,12.40
2022-09-29T02:21:31.348Z,11.80
2022-09-29T02:23:58.669Z,11.57
2022-09-29T02:26:29.382Z,11.35
2022-09-29T02:28:56.612Z,11.70
2022-09-29T02:31:24.587Z,9.98
2022-09-29T02:33:51.864Z,11.48
2022-09-29T02:36:48.626Z,10.48
2022-09-29T02:39:30.885Z,10.38
2022-09-29T02:42:17.495Z,11.70
2022-09-29T02:44:57.494Z,11.25
2022-09-29T02:47:27.998Z,10.90
2022-09-29T02:50:13.802Z,12.02
2022-09-29T02:53:10.571Z,12.57
2022-09-29T02:55:50.343Z,12.45
2022-09-29T02:58:26.831Z,11.77
2022-09-29T03:00:55.090Z,10.13
2022-09-29T03:03:22.402Z,11.38
2022-09-29T03:05:49.785Z,11.38
2022-09-29T03:08:17.079Z,10.77
2022-09-29T03:10:44.429Z,10.70
2022-09-29T03:13:11.630Z,10.43
2022-09-29T03:15:38.875Z,11.43
2022-09-29T03:18:10.066Z,10.90
2022-09-29T03:20:37.622Z,11.98
2022-09-29T03:23:04.846Z,12.25
2022-09-29T03:25:32.061Z,11.80
2022-09-29T03:27:59.308Z,11.90
2022-09-29T03:30:26.556Z,11.98
2022-09-29T03:32:54.013Z,12.77
2022-09-29T03:35:21.211Z,12.60
2022-09-29T03:37:48.410Z,11.93
2022-09-29T03:40:15.783Z,12.98
2022-09-29T03:42:42.998Z,12.88
2022-09-29T03:45:10.524Z,14.45
2022-09-29T03:47:37.714Z,13.48
2022-09-29T03:50:05.045Z,13.85
2022-09-29T03:52:32.276Z,12.90
2022-09-29T03:54:59.525Z,12.07
2022-09-29T03:57:26.819Z,11.98
2022-09-29T03:59:54.035Z,13.02
2022-09-29T04:02:21.328Z,12.35
2022-09-29T04:04:48.649Z,12.75
2022-09-29T04:07:15.992Z,13.55
2022-09-29T04:09:43.327Z,13.27
2022-09-29T04:12:10.672Z,14.98
2022-09-29T04:14:37.915Z,13.35
2022-09-29T04:17:05.110Z,13.93
2022-09-29T04:19:32.375Z,14.20
2022-09-29T04:21:59.585Z,14.50
2022-09-29T04:24:27.246Z,14.60
2022-09-29T04:26:54.520Z,15.70
2022-09-29T04:29:21.739Z,16.10
2022-09-29T04:31:49.068Z,16.95
2022-09-29T04:34:18.768Z,16.65
2022-09-29T04:36:46.376Z,16.67
2022-09-29T04:39:13.626Z,16.85
2022-09-29T04:41:41.452Z,16.33
2022-09-29T04:44:08.680Z,17.05
2022-09-29T04:46:35.914Z,16.35
2022-09-29T04:49:03.254Z,17.27
2022-09-29T04:51:30.502Z,17.90
2022-09-29T04:53:58.816Z,18.17
2022-09-29T04:56:31.287Z,18.25
2022-09-29T04:58:59.130Z,19.50
2022-09-29T05:01:26.429Z,18.90
2022-09-29T05:03:53.710Z,19.02
2022-09-29T05:06:20.978Z,19.15
2022-09-29T05:08:48.224Z,18.70
2022-09-29T05:11:15.878Z,19.30
2022-09-29T05:13:43.198Z,19.17
2022-09-29T05:16:10.470Z,19.17
2022-09-29T05:18:37.739Z,19.92
2022-09-29T05:21:26.371Z,19.08
2022-09-29T05:23:53.215Z,19.30
2022-09-29T05:26:20.489Z,18.92
2022-09-29T05:28:48.495Z,18.95
2022-09-29T05:31:16.032Z,18.90
2022-09-29T05:33:43.647Z,19.33
2022-09-29T05:36:12.346Z,19.05
2022-09-29T05:38:39.898Z,20.13
2022-09-29T05:41:12.164Z,20.13
2022-09-29T05:43:39.917Z,19.13
2022-09-29T05:46:08.065Z,18.80
2022-09-29T05:48:35.339Z,19.45
2022-09-29T05:51:08.127Z,19.67
2022-09-29T05:53:35.519Z,19.55
2022-09-29T05:56:14.449Z,19.20
2022-09-29T05:58:42.009Z,18.40
2022-09-29T06:01:14.367Z,17.95
2022-09-29T06:03:41.695Z,18.30
2022-09-29T06:06:13.292Z,18.15
2022-09-29T06:08:40.765Z,17.20
2022-09-29T06:11:09.351Z,18.08
2022-09-29T06:13:43.581Z,17.98
2022-09-29T06:16:11.405Z,18.13
2022-09-29T06:18:38.716Z,17.10
2022-09-29T06:21:15.993Z,19.55
2022-09-29T06:23:43.279Z,19.08
2022-09-29T06:26:12.869Z,20.10
2022-09-29T06:28:40.242Z,20.15
2022-09-29T06:31:18.498Z,18.80
2022-09-29T06:33:45.915Z,19.45
2022-09-29T06:36:51.845Z,20.13
2022-09-29T06:39:19.149Z,18.90
2022-09-29T06:41:53.807Z,21.02
2022-09-29T06:44:21.413Z,19.83
2022-09-29T06:46:49.291Z,20.25
2022-09-29T06:49:16.839Z,20.23
2022-09-29T06:51:46.399Z,19.98
2022-09-29T06:54:15.296Z,19.58
2022-09-29T06:56:42.755Z,19.75
2022-09-29T06:59:10.251Z,21.17
2022-09-29T07:01:37.732Z,20.02
2022-09-29T07:04:05.112Z,22.88
2022-09-29T07:06:32.459Z,21.45
2022-09-29T07:09:01.326Z,21.48
2022-09-29T07:11:29.116Z,20.80
2022-09-29T07:13:56.575Z,20.67
2022-09-29T07:16:24.565Z,21.45
2022-09-29T07:18:52.375Z,22.55
2022-09-29T07:21:22.214Z,22.20
2022-09-29T07:23:49.971Z,22.33
2022-09-29T07:26:17.507Z,22.33
2022-09-29T07:28:45.928Z,23.35
2022-09-29T07:31:15.466Z,24.50
2022-09-29T07:33:47.036Z,24.38
2022-09-29T07:36:15.185Z,25.15
2022-09-29T07:38:42.545Z,28.40
2022-09-29T07:41:11.640Z,39.28
2022-09-29T07:43:39.390Z,27.73
2022-09-29T07:46:07.364Z,26.23
2022-09-29T07:48:35.215Z,27.30
2022-09-29T07:51:11.183Z,27.08
2022-09-29T07:53:38.723Z,26.42
2022-09-29T07:56:10.112Z,26.83
2022-09-29T07:58:37.828Z,26.65
2022-09-29T08:01:06.685Z,26.95
2022-09-29T08:03:34.485Z,24.80
2022-09-29T08:06:01.739Z,26.25
2022-09-29T08:08:28.980Z,26.23
2022-09-29T08:11:24.454Z,26.33
2022-09-29T08:13:55.931Z,25.80
2022-09-29T08:16:23.736Z,29.58
2022-09-29T08:18:51.084Z,25.02
2022-09-29T08:21:18.498Z,23.65
2022-09-29T08:23:45.758Z,20.92
2022-09-29T08:26:17.329Z,23.27
2022-09-29T08:31:14.189Z,21.70
2022-09-29T08:33:41.949Z,25.35
2022-09-29T08:36:14.642Z,26.70
2022-09-29T08:38:45.611Z,23.95
2022-09-29T08:41:33.871Z,22.02
2022-09-29T08:44:31.114Z,19.42
2022-09-29T08:47:09.654Z,15.65
2022-09-29T08:49:43.375Z,15.23
2022-09-29T08:52:17.425Z,12.82
2022-09-29T08:54:48.748Z,12.30
2022-09-29T08:57:21.150Z,10.85
2022-09-29T09:02:18.647Z,9.43
2022-09-29T09:04:58.512Z,8.88
2022-09-29T09:07:28.767Z,8.32
2022-09-29T09:09:57.463Z,8.30
2022-09-29T09:12:30.847Z,7.38
2022-09-29T09:15:06.974Z,7.90
2022-09-29T09:17:34.167Z,7.13
2022-09-29T09:20:04.518Z,7.65
2022-09-29T09:22:44.584Z,7.47
2022-09-29T09:25:14.664Z,8.05
2022-09-29T09:27:44.757Z,7.80
2022-09-29T09:30:17.120Z,8.93
2022-09-29T09:32:54.078Z,7.50
2022-09-29T09:35:24.086Z,6.47
2022-09-29T09:37:53.812Z,6.47
2022-09-29T09:40:24.195Z,6.03
2022-09-29T09:42:53.723Z,5.75
2022-09-29T09:45:28.001Z,5.63
2022-09-29T09:48:02.391Z,5.10
2022-09-29T09:50:30.488Z,5.03
2022-09-29T09:52:59.576Z,5.05
2022-09-29T09:55:27.202Z,5.35
2022-09-29T09:57:54.421Z,5.60
2022-09-29T10:00:21.656Z,4.30
2022-09-29T10:02:55.881Z,4.55
2022-09-29T10:05:26.255Z,4.07
2022-09-29T10:07:53.988Z,3.85
2022-09-29T10:10:25.852Z,3.92
2022-09-29T10:13:13.065Z,3.95
2022-09-29T10:15:40.288Z,3.55
2022-09-29T10:18:12.062Z,3.08
2022-09-29T10:20:41.848Z,2.92
2022-09-29T10:23:27.169Z,3.75
2022-09-29T10:26:00.254Z,2.85
2022-09-29T10:28:29.676Z,1.77
2022-09-29T10:30:57.183Z,2.38
2022-09-29T10:33:25.873Z,2.22
2022-09-29T10:36:04.053Z,2.10
2022-09-29T10:38:32.296Z,2.13
2022-09-29T10:41:02.261Z,1.98
2022-09-29T10:43:35.387Z,2.15
2022-09-29T10:46:02.729Z,2.45
2022-09-29T10:48:30.083Z,19.17
2022-09-29T10:53:43.120Z,1.02
2022-09-29T10:56:10.875Z,1.00
2022-09-29T10:58:57.607Z,1.35
2022-09-29T11:01:30.134Z,0.80
2022-09-29T11:04:01.675Z,0.77
2022-09-29T11:08:57.073Z,0.73
2022-09-29T11:11:32.113Z,0.75
2022-09-29T11:13:59.746Z,0.50
2022-09-29T11:16:26.962Z,0.40
2022-09-29T11:18:55.107Z,0.60
2022-09-29T11:21:22.375Z,0.45
2022-09-29T11:23:55.475Z,0.60
2022-09-29T11:26:48.717Z,0.80
2022-09-29T11:29:34.539Z,0.75
2022-09-29T11:32:01.719Z,0.70
2022-09-29T11:34:37.847Z,0.80
2022-09-29T11:37:23.533Z,0.88
2022-09-29T11:40:02.266Z,0.70
2022-09-29T11:42:55.556Z,0.85
2022-09-29T11:45:24.915Z,0.55
2022-09-29T11:47:52.715Z,0.55
2022-09-29T11:50:24.974Z,0.50
2022-09-29T11:53:10.989Z,0.88
2022-09-29T11:55:57.088Z,0.50
2022-09-29T11:58:27.317Z,0.40
2022-09-29T12:01:01.259Z,0.40
2022-09-29T12:03:40.686Z,0.50
2022-09-29T12:06:07.926Z,0.47
2022-09-29T12:08:47.360Z,0.40
2022-09-29T12:11:41.932Z,0.57
2022-09-29T12:14:04.750Z,0.35
2022-09-29T12:16:34.165Z,0.30
2022-09-29T12:19:05.905Z,0.30
2022-09-29T12:21:35.784Z,0.43
2022-09-29T12:24:06.811Z,0.20
2022-09-29T12:26:34.389Z,0.30
2022-09-29T12:29:02.367Z,0.30
2022-09-29T12:31:32.448Z,0.38
2022-09-29T12:34:01.112Z,0.30
2022-09-29T12:36:44.727Z,21.30
2022-09-29T12:39:31.590Z,3.42
2022-09-29T12:42:19.089Z,0.40
2022-09-29T12:44:52.319Z,0.30
2022-09-29T12:47:34.592Z,0.35
2022-09-29T12:50:06.436Z,0.30
2022-09-29T12:52:39.165Z,0.28
2022-09-29T12:55:09.633Z,0.30
2022-09-29T12:57:41.784Z,0.40
2022-09-29T13:00:12.558Z,0.30
2022-09-29T13:02:48.681Z,0.30
2022-09-29T13:05:42.248Z,0.43
2022-09-29T13:08:28.347Z,0.22
2022-09-29T13:10:55.567Z,0.20
2022-09-29T13:13:22.751Z,0.20
2022-09-29T13:15:49.985Z,0.20
2022-09-29T13:18:35.797Z,0.20
2022-09-29T13:21:14.040Z,0.20
2022-09-29T13:23:47.438Z,0.20
2022-09-29T13:26:17.839Z,0.20
2022-09-29T13:28:53.037Z,0.20
2022-09-29T13:31:22.734Z,0.30
2022-09-29T13:33:52.068Z,0.28
2022-09-29T13:36:24.116Z,0.20
2022-09-29T13:38:55.471Z,0.40
2022-09-29T13:41:22.655Z,0.25
2022-09-29T13:43:53.019Z,0.10
2022-09-29T13:46:32.464Z,0.30
2022-09-29T13:49:14.527Z,0.20
2022-09-29T13:51:54.123Z,0.20
2022-09-29T13:54:30.373Z,0.20
2022-09-29T13:57:01.982Z,0.32
2022-09-29T14:01:56.547Z,0.20
2022-09-29T14:04:44.074Z,0.20
2022-09-29T14:07:12.943Z,0.20
2022-09-29T14:09:42.785Z,0.20
2022-09-29T14:12:17.059Z,0.20
2022-09-29T14:14:46.227Z,0.30
2022-09-29T14:17:18.280Z,0.30
2022-09-29T14:19:59.035Z,0.30
2022-09-29T14:22:32.416Z,0.20
2022-09-29T14:25:08.455Z,0.30
2022-09-29T14:27:51.912Z,0.20
2022-09-29T14:30:20.729Z,0.30
2022-09-29T14:32:47.973Z,0.20
2022-09-29T14:35:35.457Z,0.20
2022-09-29T14:38:09.413Z,0.30
2022-09-29T14:40:36.699Z,0.70
2022-09-29T14:43:12.223Z,0.30
2022-09-29T14:46:10.083Z,0.40
2022-09-29T14:49:03.091Z,0.30
2022-09-29T14:51:53.756Z,0.20
2022-09-29T14:54:23.728Z,13.27
2022-09-29T14:57:03.027Z,25.88
2022-09-29T14:59:33.843Z,7.93
2022-09-29T15:02:05.532Z,0.53
2022-09-29T15:07:04.951Z,0.20
2022-09-29T15:09:35.954Z,0.20
2022-09-29T15:12:04.362Z,0.20
2022-09-29T15:14:36.924Z,0.20
2022-09-29T15:17:09.595Z,0.30
2022-09-29T15:19:40.863Z,0.30
2022-09-29T15:22:31.256Z,0.30
2022-09-29T15:25:11.566Z,0.38
2022-09-29T15:27:40.609Z,0.20
2022-09-29T15:30:14.492Z,0.20
2022-09-29T15:32:41.695Z,0.20
2022-09-29T15:35:09.767Z,0.30
2022-09-29T15:37:46.055Z,0.20
2022-09-29T15:40:16.954Z,0.30
2022-09-29T15:42:46.795Z,0.28
2022-09-29T15:45:18.138Z,0.30
2022-09-29T15:47:45.375Z,0.30
2022-09-29T15:50:26.089Z,0.38
2022-09-29T15:52:53.387Z,0.43
2022-09-29T15:55:23.087Z,0.40
2022-09-29T15:57:51.283Z,0.40
2022-09-29T16:00:24.411Z,9.70
2022-09-29T16:03:10.163Z,81.53
2022-09-29T16:05:43.013Z,6.53
2022-09-29T16:08:22.278Z,1.70
2022-09-29T16:11:08.592Z,1.10
2022-09-29T16:13:37.551Z,1.10
2022-09-29T16:16:10.248Z,0.60
2022-09-29T16:18:37.517Z,0.50
2022-09-29T16:21:18.988Z,0.40
2022-09-29T16:24:06.802Z,0.40
2022-09-29T16:26:38.475Z,0.50
2022-09-29T16:31:33.777Z,0.50
2022-09-29T16:34:01.976Z,0.88
2022-09-29T16:36:33.844Z,1.17
2022-09-29T16:39:01.931Z,0.63
2022-09-29T16:41:40.938Z,1.05
2022-09-29T16:44:14.150Z,0.85
2022-09-29T16:46:52.689Z,0.60
2022-09-29T16:49:28.211Z,0.57
2022-09-29T16:51:57.071Z,0.50
2022-09-29T16:54:26.575Z,0.40
2022-09-29T16:57:12.716Z,0.60
2022-09-29T16:59:39.947Z,0.80
2022-09-29T17:02:10.427Z,1.15
2022-09-29T17:04:37.889Z,1.40
2022-09-29T17:07:05.399Z,1.00
2022-09-29T17:09:32.793Z,1.10
2022-09-29T17:12:00.140Z,1.20
2022-09-29T17:14:30.815Z,1.52
2022-09-29T17:16:58.551Z,1.35
2022-09-29T17:19:26.305Z,1.20
2022-09-29T17:21:54.011Z,0.60
2022-09-29T17:24:21.331Z,0.70
2022-09-29T17:27:07.151Z,0.60
2022-09-29T17:29:36.016Z,14.65
2022-09-29T17:32:03.495Z,45.55
2022-09-29T17:34:31.009Z,8.90
2022-09-29T17:37:02.009Z,1.83
2022-09-29T17:39:29.423Z,1.13
2022-09-29T17:41:56.676Z,0.70
2022-09-29T17:44:23.914Z,0.75
2022-09-29T17:46:57.206Z,0.70
2022-09-29T17:49:29.725Z,1.25
2022-09-29T17:51:56.972Z,0.75
2022-09-29T17:54:27.179Z,1.75
2022-09-29T17:56:57.764Z,1.65
2022-09-29T17:59:27.487Z,1.95
2022-09-29T18:01:54.787Z,1.67
2022-09-29T18:04:22.207Z,1.13
2022-09-29T18:06:49.659Z,1.10
2022-09-29T18:09:17.931Z,1.45
2022-09-29T18:11:45.639Z,1.30
2022-09-29T18:14:12.886Z,1.30
2022-09-29T18:16:40.171Z,1.50
2022-09-29T18:19:17.052Z,0.90
2022-09-29T18:21:45.222Z,1.00
2022-09-29T18:24:13.285Z,1.17
2022-09-29T18:26:41.530Z,2.25
2022-09-29T18:29:19.136Z,1.70
2022-09-29T18:31:46.393Z,33.72
2022-09-29T18:34:15.551Z,23.85
2022-09-29T18:36:43.024Z,4.25
2022-09-29T18:39:10.240Z,1.70
2022-09-29T18:41:37.728Z,1.50
2022-09-29T18:44:14.149Z,1.30
2022-09-29T18:46:43.737Z,1.88
2022-09-29T18:49:15.165Z,1.88
2022-09-29T18:51:42.395Z,0.85
2022-09-29T18:54:09.666Z,1.10
2022-09-29T18:56:36.939Z,1.00
2022-09-29T18:59:07.692Z,0.80
2022-09-29T19:01:35.053Z,0.80
2022-09-29T19:04:02.463Z,1.00
2022-09-29T19:06:29.796Z,0.88
2022-09-29T19:08:57.178Z,2.30
2022-09-29T19:11:25.706Z,1.95
2022-09-29T19:13:55.351Z,8.15
2022-09-29T19:16:23.284Z,199.30
2022-09-29T19:18:50.713Z,178.43
2022-09-29T19:21:18.042Z,59.63
2022-09-29T19:23:46.857Z,25.95
2022-09-29T19:26:16.828Z,2.80
2022-09-29T19:28:44.588Z,2.83
2022-09-29T19:31:13.826Z,3.17
2022-09-29T19:33:41.918Z,3.13
2022-09-29T19:36:10.494Z,2.92
2022-09-29T19:38:38.291Z,3.00
2022-09-29T19:41:05.987Z,2.92
2022-09-29T19:43:33.420Z,3.13
2022-09-29T19:46:06.842Z,3.03
2022-09-29T19:48:34.157Z,3.28
2022-09-29T19:51:20.193Z,3.30
2022-09-29T19:53:49.546Z,3.33
2022-09-29T19:56:18.113Z,3.00
2022-09-29T19:58:45.465Z,3.42
2022-09-29T20:01:12.974Z,2.97
2022-09-29T20:03:40.481Z,3.55
2022-09-29T20:06:09.072Z,2.83
2022-09-29T20:08:36.325Z,3.25
2022-09-29T20:11:07.688Z,3.38
2022-09-29T20:13:35.037Z,3.28
2022-09-29T20:16:02.620Z,3.60
2022-09-29T20:18:29.860Z,3.80
2022-09-29T20:20:57.643Z,4.15
2022-09-29T20:23:25.138Z,4.15
2022-09-29T20:25:59.242Z,3.95
2022-09-29T20:28:26.548Z,4.97
2022-09-29T20:30:58.197Z,5.25
2022-09-29T20:35:52.851Z,5.30
2022-09-29T20:38:20.155Z,5.63
2022-09-29T20:40:48.848Z,5.63
2022-09-29T20:43:16.132Z,6.22
2022-09-29T20:45:43.396Z,4.88
2022-09-29T20:48:10.750Z,5.85
2022-09-29T20:50:38.216Z,5.43
2022-09-29T20:53:05.591Z,5.05
2022-09-29T20:55:34.857Z,5.22
2022-09-29T20:58:03.153Z,5.47
2022-09-29T21:00:30.462Z,5.40
2022-09-29T21:02:58.103Z,5.15
2022-09-29T21:05:25.498Z,4.82
2022-09-29T21:07:52.757Z,5.80
2022-09-29T21:10:20.102Z,5.13
2022-09-29T21:12:47.348Z,5.10
2022-09-29T21:15:14.712Z,4.85
2022-09-29T21:17:43.128Z,5.03
2022-09-29T21:20:10.584Z,5.15
2022-09-29T21:22:37.903Z,5.45
2022-09-29T21:25:05.290Z,5.63
2022-09-29T21:27:33.903Z,6.38
2022-09-29T21:30:01.396Z,5.53
2022-09-29T21:32:29.260Z,23.92
2022-09-29T21:34:57.307Z,26.23
2022-09-29T21:37:24.497Z,17.77
2022-09-29T21:39:52.072Z,10.15
2022-09-29T21:42:19.406Z,7.85
2022-09-29T21:44:46.657Z,8.05
2022-09-29T21:47:13.946Z,6.68
2022-09-29T21:49:42.923Z,6.05
2022-09-29T21:52:10.248Z,5.82
2022-09-29T21:54:38.753Z,6.30
2022-09-29T21:57:06.899Z,6.18
2022-09-29T21:59:34.167Z,6.55
2022-09-29T22:02:01.550Z,6.78
2022-09-29T22:04:28.930Z,6.50
2022-09-29T22:06:56.374Z,7.10
2022-09-29T22:09:23.982Z,6.03
2022-09-29T22:11:51.320Z,6.07
2022-09-29T22:14:19.076Z,6.97
2022-09-29T22:16:46.537Z,6.20
2022-09-29T22:19:29.511Z,5.03
2022-09-29T22:21:56.831Z,3.80
2022-09-29T22:24:26.577Z,3.28
2022-09-29T22:26:54.087Z,3.33
2022-09-29T22:29:21.564Z,2.60
2022-09-29T22:31:48.954Z,2.13
2022-09-29T22:34:16.245Z,1.80
2022-09-29T22:36:43.465Z,1.40
2022-09-29T22:39:10.938Z,1.20
2022-09-29T22:41:39.955Z,0.85
2022-09-29T22:44:07.846Z,1.23
2022-09-29T22:46:35.406Z,1.33
2022-09-29T22:49:02.883Z,1.10
2022-09-29T22:51:30.372Z,1.00
2022-09-29T22:53:57.575Z,1.23
2022-09-29T22:56:28.738Z,1.02
2022-09-29T22:58:59.572Z,1.10
2022-09-29T23:01:27.046Z,1.17
2022-09-29T23:03:54.459Z,1.10
2022-09-29T23:06:21.974Z,1.00
2022-09-29T23:08:49.206Z,0.98
2022-09-29T23:11:17.919Z,1.10
2022-09-29T23:13:45.332Z,0.90
2022-09-29T23:16:13.898Z,1.08
2022-09-29T23:18:44.873Z,1.10
2022-09-29T23:21:19.349Z,41.75
2022-09-29T23:23:54.873Z,48.00
2022-09-29T23:26:22.482Z,7.82
2022-09-29T23:28:49.744Z,1.95
2022-09-29T23:31:17.048Z,1.63
2022-09-29T23:33:45.141Z,1.75
2022-09-29T23:36:13.684Z,2.30
2022-09-29T23:39:00.891Z,2.40
2022-09-29T23:41:30.009Z,3.10
2022-09-29T23:43:58.043Z,3.13
2022-09-29T23:46:25.804Z,2.75
2022-09-29T23:48:53.267Z,2.95
2022-09-29T23:51:20.523Z,3.60
2022-09-29T23:53:47.757Z,2.60
2022-09-29T23:56:15.023Z,2.25
2022-09-29T23:58:42.249Z,2.20
